Time;durP1;ratioP1;P1;durP2;ratioP2;P2;SDS_P1;SDS_P2;PMS_P1;PMS_P2;Temp;Humidity;BMP_temperature;BMP_pressure;BME280_temperature;BME280_humidity;BME280_pressure;Samples;Min_cycle;Max_cycle;Signal;HPM_P1;HPM_P2
2023/12/08 00:15:13;;;;;;;2.10;1.50;;;;;;;;;;5085353;27;20619;-54
2023/12/08 02:55:17;;;;;;;2.53;1.67;;;;;;;;;;5088381;27;20610;-52
2023/12/08 02:57:44;;;;;;;2.20;1.57;;;;;;;;;;5084764;28;20540;-51
2023/12/08 06:20:22;;;;;;;2.90;2.60;;;;;;;;;;5154135;27;20938;-52
2023/12/08 06:22:50;;;;;;;3.03;2.40;;;;;;;;;;5133831;27;20494;-52
2023/12/08 06:25:17;;;;;;;3.50;2.90;;;;;;;;;;5136442;27;20860;-52
2023/12/08 06:53:25;;;;;;;2.80;1.67;;;;;;;;;;5095179;27;21116;-52
2023/12/08 06:55:52;;;;;;;4.23;3.30;;;;;;;;;;5099252;28;20498;-51
2023/12/08 07:00:55;;;;;;;6.30;4.40;;;;;;;;;;5101007;27;20630;-51
2023/12/08 07:03:23;;;;;;;5.53;4.20;;;;;;;;;;5079007;28;20443;-51
2023/12/08 07:18:43;;;;;;;6.17;3.97;;;;;;;;;;5098245;27;20573;-53
2023/12/08 07:23:44;;;;;;;9.87;7.80;;;;;;;;;;5098972;27;20636;-54
2023/12/08 07:39:07;;;;;;;12.90;7.43;;;;;;;;;;5095854;27;20615;-53
2023/12/08 07:54:26;;;;;;;9.60;7.50;;;;;;;;;;5079972;27;20673;-55
2023/12/08 08:04:38;;;;;;;11.80;9.90;;;;;;;;;;5088424;27;20581;-54
2023/12/08 08:35:23;;;;;;;15.55;13.30;;;;;;;;;;5083527;27;20538;-51
2023/12/08 08:37:50;;;;;;;16.80;12.93;;;;;;;;;;5083936;28;20583;-50
2023/12/08 08:40:17;;;;;;;16.03;12.97;;;;;;;;;;5080763;28;20452;-51
2023/12/08 08:42:45;;;;;;;18.00;13.47;;;;;;;;;;5063890;28;20456;-54
2023/12/08 08:45:12;;;;;;;15.57;11.70;;;;;;;;;;5060401;28;20947;-53
2023/12/08 08:47:39;;;;;;;14.30;12.90;;;;;;;;;;5063811;28;20456;-53
2023/12/08 08:50:07;;;;;;;12.57;11.23;;;;;;;;;;5063375;28;20440;-51
2023/12/08 08:52:36;;;;;;;16.43;14.00;;;;;;;;;;5063843;28;20475;-53
2023/12/08 08:55:04;;;;;;;20.80;14.00;;;;;;;;;;5063165;28;20567;-53
2023/12/08 08:57:31;;;;;;;13.03;11.67;;;;;;;;;;5062823;28;20486;-53
2023/12/08 08:59:58;;;;;;;12.90;10.27;;;;;;;;;;5060837;28;21013;-54
2023/12/08 09:02:26;;;;;;;11.40;10.30;;;;;;;;;;5057282;28;20441;-53
2023/12/08 09:04:53;;;;;;;14.00;10.57;;;;;;;;;;5063666;28;20516;-54
2023/12/08 09:12:32;;;;;;;17.47;13.20;;;;;;;;;;5083439;27;21100;-52
2023/12/08 09:14:59;;;;;;;16.00;14.40;;;;;;;;;;5083998;28;20977;-53
2023/12/08 09:53:29;;;;;;;11.03;9.43;;;;;;;;;;5084094;27;20625;-56
2023/12/08 10:32:08;;;;;;;13.23;11.63;;;;;;;;;;5071883;27;20674;-55
2023/12/08 10:34:39;;;;;;;12.73;11.53;;;;;;;;;;5069532;28;20485;-55
2023/12/08 10:37:07;;;;;;;15.43;13.63;;;;;;;;;;5068038;28;20479;-56
2023/12/08 10:54:57;;;;;;;10.87;9.77;;;;;;;;;;5124351;27;21244;-57
2023/12/08 11:05:11;;;;;;;12.70;11.43;;;;;;;;;;5113268;27;21296;-56
2023/12/08 11:10:14;;;;;;;14.70;11.20;;;;;;;;;;5106238;27;20623;-56
2023/12/08 11:12:44;;;;;;;13.37;11.97;;;;;;;;;;5091602;28;21000;-57
2023/12/08 11:22:58;;;;;;;11.63;10.43;;;;;;;;;;5087060;27;21219;-56
2023/12/08 11:43:06;;;;;;;12.00;10.87;;;;;;;;;;5130134;27;20338;-56
2023/12/08 12:01:12;;;;;;;10.77;9.70;;;;;;;;;;5119768;27;20592;-57
2023/12/08 12:06:14;;;;;;;11.83;10.63;;;;;;;;;;5090177;27;20622;-56
2023/12/08 12:08:42;;;;;;;11.83;10.67;;;;;;;;;;5092418;28;20438;-56
2023/12/08 12:16:18;;;;;;;12.87;11.70;;;;;;;;;;5145924;27;20646;-56
2023/12/08 12:23:52;;;;;;;11.83;10.63;;;;;;;;;;5083480;27;20645;-55
2023/12/08 12:26:20;;;;;;;11.67;10.47;;;;;;;;;;5089394;28;20439;-56
2023/12/08 12:28:48;;;;;;;11.50;10.40;;;;;;;;;;5083776;28;20450;-55
2023/12/08 12:36:25;;;;;;;11.53;10.30;;;;;;;;;;5095073;27;20571;-55
2023/12/08 13:02:32;;;;;;;15.47;12.70;;;;;;;;;;5101069;27;20667;-56
2023/12/08 13:12:47;;;;;;;15.00;12.40;;;;;;;;;;5091621;27;21069;-55
2023/12/08 13:15:15;;;;;;;15.57;13.83;;;;;;;;;;5097504;28;20440;-55
2023/12/08 13:35:47;;;;;;;18.10;15.97;;;;;;;;;;5087424;27;20657;-54
2023/12/08 14:04:00;;;;;;;15.23;13.80;;;;;;;;;;5095056;27;20625;-54
2023/12/08 14:06:28;;;;;;;15.50;13.97;;;;;;;;;;5085604;28;20523;-54
2023/12/08 14:24:20;;;;;;;18.93;16.77;;;;;;;;;;5076301;28;20594;-55
2023/12/08 14:26:47;;;;;;;18.70;16.27;;;;;;;;;;5075108;28;20437;-54
2023/12/08 14:34:23;;;;;;;18.50;16.60;;;;;;;;;;5097390;27;20453;-54
2023/12/08 14:36:51;;;;;;;96.27;32.00;;;;;;;;;;5101042;28;20222;-53
2023/12/08 14:39:18;;;;;;;17.80;15.97;;;;;;;;;;5087282;28;20435;-53
2023/12/08 14:41:45;;;;;;;19.67;16.37;;;;;;;;;;5085647;28;20531;-54
2023/12/08 14:46:59;;;;;;;20.03;17.73;;;;;;;;;;5092605;28;20337;-55
2023/12/08 15:48:26;;;;;;;12.73;11.53;;;;;;;;;;5061945;27;21244;-54
2023/12/08 15:53:27;;;;;;;11.30;9.93;;;;;;;;;;5084618;27;20582;-52
2023/12/08 15:55:54;;;;;;;9.40;8.50;;;;;;;;;;5084443;28;20440;-54
2023/12/08 15:58:21;;;;;;;10.50;9.50;;;;;;;;;;5080187;28;20428;-53
2023/12/08 16:00:51;;;;;;;13.53;11.00;;;;;;;;;;5080504;28;20493;-53
2023/12/08 16:03:19;;;;;;;14.10;12.67;;;;;;;;;;5070409;28;20488;-53
2023/12/08 16:05:46;;;;;;;20.17;17.30;;;;;;;;;;5068355;28;20531;-53
2023/12/08 16:08:13;;;;;;;21.60;17.20;;;;;;;;;;5068570;28;20449;-53
2023/12/08 16:10:42;;;;;;;17.47;15.10;;;;;;;;;;5064334;28;21002;-55
2023/12/08 16:13:09;;;;;;;18.83;14.20;;;;;;;;;;5068318;28;20548;-55
2023/12/08 16:15:37;;;;;;;20.83;14.53;;;;;;;;;;5069187;28;20521;-53
2023/12/08 16:18:04;;;;;;;15.03;12.10;;;;;;;;;;5070566;28;20637;-55
2023/12/08 16:20:32;;;;;;;15.33;13.77;;;;;;;;;;5066540;28;20979;-55
2023/12/08 16:22:59;;;;;;;13.17;12.00;;;;;;;;;;5068698;28;20515;-55
2023/12/08 16:25:26;;;;;;;17.87;14.10;;;;;;;;;;5071764;28;20483;-54
2023/12/08 16:27:55;;;;;;;37.80;21.17;;;;;;;;;;5070484;28;20445;-53
2023/12/08 16:30:23;;;;;;;16.57;14.97;;;;;;;;;;5063428;28;20543;-54
2023/12/08 16:32:50;;;;;;;14.20;12.80;;;;;;;;;;5063570;28;20456;-54
2023/12/08 16:35:17;;;;;;;16.20;14.10;;;;;;;;;;5066783;28;20514;-55
2023/12/08 16:37:45;;;;;;;13.33;11.80;;;;;;;;;;5070175;28;20456;-53
2023/12/08 16:40:12;;;;;;;13.17;11.97;;;;;;;;;;5074726;28;20443;-53
2023/12/08 16:42:40;;;;;;;11.40;10.30;;;;;;;;;;5073432;28;20484;-53
2023/12/08 16:45:09;;;;;;;11.93;10.83;;;;;;;;;;5063324;28;20520;-54
2023/12/08 16:47:36;;;;;;;13.03;11.57;;;;;;;;;;5073205;28;20525;-54
2023/12/08 16:50:04;;;;;;;12.10;10.20;;;;;;;;;;5064645;28;20543;-52
2023/12/08 16:52:31;;;;;;;12.67;10.93;;;;;;;;;;5061709;28;20515;-55
2023/12/08 16:54:58;;;;;;;12.50;10.00;;;;;;;;;;5064847;28;20498;-54
2023/12/08 16:57:26;;;;;;;13.40;10.77;;;;;;;;;;5062843;28;20511;-54
2023/12/08 16:59:53;;;;;;;10.33;9.33;;;;;;;;;;5078281;28;20530;-55
2023/12/08 17:04:56;;;;;;;10.77;9.77;;;;;;;;;;5081024;27;21679;-54
2023/12/08 17:07:23;;;;;;;12.20;9.80;;;;;;;;;;5078521;28;20441;-54
2023/12/08 17:09:51;;;;;;;11.00;9.80;;;;;;;;;;5078118;28;20934;-54
2023/12/08 17:12:18;;;;;;;10.83;9.73;;;;;;;;;;5077531;28;20448;-56
2023/12/08 17:14:45;;;;;;;11.40;10.33;;;;;;;;;;5068343;28;21274;-54
2023/12/08 17:17:12;;;;;;;9.13;8.17;;;;;;;;;;5071685;28;20445;-54
2023/12/08 17:19:40;;;;;;;13.23;9.47;;;;;;;;;;5070687;28;20937;-53
2023/12/08 17:22:08;;;;;;;11.97;10.77;;;;;;;;;;5082671;28;20460;-54
2023/12/08 17:24:36;;;;;;;13.27;11.13;;;;;;;;;;5074626;28;20448;-55
2023/12/08 17:27:04;;;;;;;15.17;13.00;;;;;;;;;;5082806;28;20481;-55
2023/12/08 17:29:31;;;;;;;12.50;11.17;;;;;;;;;;5086113;28;20999;-55
2023/12/08 17:31:58;;;;;;;15.20;10.67;;;;;;;;;;5086664;28;20485;-54
2023/12/08 17:34:26;;;;;;;11.20;10.17;;;;;;;;;;5086380;28;20553;-52
2023/12/08 17:36:53;;;;;;;12.10;10.90;;;;;;;;;;5083964;28;20448;-55
2023/12/08 17:39:22;;;;;;;12.17;10.20;;;;;;;;;;5076918;28;20458;-53
2023/12/08 17:41:49;;;;;;;10.63;9.63;;;;;;;;;;5085584;28;20471;-55
2023/12/08 17:44:16;;;;;;;12.80;11.70;;;;;;;;;;5086167;28;20439;-54
2023/12/08 17:46:44;;;;;;;16.80;14.90;;;;;;;;;;5086387;28;20452;-54
2023/12/08 17:49:11;;;;;;;16.07;14.40;;;;;;;;;;5084022;28;20458;-53
2023/12/08 17:51:39;;;;;;;18.97;15.33;;;;;;;;;;5085523;28;20451;-53
2023/12/08 17:54:06;;;;;;;34.50;26.53;;;;;;;;;;5085707;28;20566;-53
2023/12/08 17:56:35;;;;;;;27.57;23.20;;;;;;;;;;5085795;28;20443;-53
2023/12/08 17:59:02;;;;;;;18.30;16.30;;;;;;;;;;5085165;28;20440;-55
2023/12/08 18:01:30;;;;;;;18.63;16.73;;;;;;;;;;5086054;28;20550;-54
2023/12/08 18:03:57;;;;;;;19.90;17.90;;;;;;;;;;5076141;28;20462;-54
2023/12/08 18:06:25;;;;;;;20.90;18.80;;;;;;;;;;5085863;28;20888;-56
2023/12/08 18:08:53;;;;;;;19.77;17.70;;;;;;;;;;5080320;28;20448;-53
2023/12/08 18:11:21;;;;;;;19.60;17.37;;;;;;;;;;5080789;28;20460;-53
2023/12/08 18:13:51;;;;;;;17.93;15.80;;;;;;;;;;5075724;28;20586;-53
2023/12/08 18:16:22;;;;;;;17.77;15.87;;;;;;;;;;5051994;28;20951;-56
2023/12/08 18:18:49;;;;;;;20.43;15.67;;;;;;;;;;5059544;28;20441;-54
2023/12/08 18:21:22;;;;;;;18.77;15.40;;;;;;;;;;5058585;28;20465;-55
2023/12/08 18:23:50;;;;;;;17.40;15.70;;;;;;;;;;5062782;28;20814;-55
2023/12/08 18:26:17;;;;;;;17.20;15.50;;;;;;;;;;5071672;28;20450;-54
2023/12/08 18:28:45;;;;;;;18.27;16.40;;;;;;;;;;5071557;28;20810;-54
2023/12/08 18:31:22;;;;;;;17.63;15.90;;;;;;;;;;5068174;28;20466;-55
2023/12/08 18:33:49;;;;;;;19.50;17.50;;;;;;;;;;5071502;28;20993;-56
2023/12/08 18:36:20;;;;;;;16.57;14.87;;;;;;;;;;5061963;28;21015;-54
2023/12/08 18:38:48;;;;;;;15.83;13.70;;;;;;;;;;5062158;28;20892;-56
2023/12/08 18:41:15;;;;;;;16.73;15.03;;;;;;;;;;5060003;28;20517;-55
2023/12/08 18:43:43;;;;;;;17.10;15.30;;;;;;;;;;5071758;28;20437;-53
2023/12/08 18:46:11;;;;;;;17.00;15.20;;;;;;;;;;5071552;28;20452;-54
2023/12/08 18:48:40;;;;;;;17.17;15.47;;;;;;;;;;5069360;28;20452;-57
2023/12/08 18:51:07;;;;;;;16.80;14.70;;;;;;;;;;5066705;28;20469;-54
2023/12/08 18:53:35;;;;;;;17.40;15.57;;;;;;;;;;5071439;28;20534;-54
2023/12/08 18:56:03;;;;;;;23.53;19.00;;;;;;;;;;5067754;28;20493;-55
2023/12/08 18:58:30;;;;;;;30.53;23.63;;;;;;;;;;5069735;28;20679;-53
2023/12/08 19:00:57;;;;;;;28.00;23.20;;;;;;;;;;5067616;28;20515;-52
2023/12/08 19:03:25;;;;;;;24.83;22.20;;;;;;;;;;5070261;28;20448;-55
2023/12/08 19:05:54;;;;;;;25.00;22.40;;;;;;;;;;5066569;28;20448;-55
2023/12/08 19:08:21;;;;;;;27.73;21.80;;;;;;;;;;5062174;28;20444;-55
2023/12/08 19:10:50;;;;;;;27.93;21.60;;;;;;;;;;5070798;28;20472;-54
2023/12/08 19:13:17;;;;;;;20.33;18.23;;;;;;;;;;5070880;28;20454;-55
2023/12/08 19:15:45;;;;;;;23.40;19.40;;;;;;;;;;5070750;28;20531;-53
2023/12/08 19:18:12;;;;;;;23.03;20.70;;;;;;;;;;5067504;28;20433;-51
2023/12/08 19:20:41;;;;;;;23.00;18.50;;;;;;;;;;5070863;28;20440;-56
2023/12/08 19:23:10;;;;;;;23.77;21.30;;;;;;;;;;5070589;28;20440;-55
2023/12/08 19:25:39;;;;;;;19.37;17.47;;;;;;;;;;5070590;28;20965;-53
2023/12/08 19:28:06;;;;;;;20.70;18.57;;;;;;;;;;5069297;28;20843;-53
2023/12/08 19:30:34;;;;;;;22.43;19.07;;;;;;;;;;5063140;28;20489;-53
2023/12/08 19:33:02;;;;;;;23.30;19.10;;;;;;;;;;5069538;28;20901;-55
2023/12/08 19:35:29;;;;;;;24.10;19.10;;;;;;;;;;5070658;28;20571;-54
2023/12/08 19:37:57;;;;;;;21.47;18.70;;;;;;;;;;5070251;28;20444;-54
2023/12/08 19:40:26;;;;;;;22.93;20.57;;;;;;;;;;5060011;28;20471;-56
2023/12/08 19:42:53;;;;;;;22.23;19.97;;;;;;;;;;5070411;28;20527;-53
2023/12/08 19:45:21;;;;;;;23.73;21.17;;;;;;;;;;5070238;28;20506;-56
2023/12/08 19:47:48;;;;;;;24.37;21.23;;;;;;;;;;5063683;28;20528;-56
2023/12/08 19:50:15;;;;;;;25.20;21.10;;;;;;;;;;5065321;28;20448;-52
2023/12/08 19:52:43;;;;;;;23.17;20.77;;;;;;;;;;5047209;22;20490;-55
2023/12/08 19:55:10;;;;;;;26.13;22.00;;;;;;;;;;5019686;28;20510;-54
2023/12/08 19:57:39;;;;;;;22.53;20.20;;;;;;;;;;5021333;28;20873;-54
2023/12/08 20:00:07;;;;;;;24.60;20.80;;;;;;;;;;5018189;28;20451;-54
2023/12/08 20:02:36;;;;;;;27.30;22.97;;;;;;;;;;5024237;28;20470;-54
2023/12/08 20:05:04;;;;;;;22.00;19.90;;;;;;;;;;5010376;28;20537;-54
2023/12/08 20:07:31;;;;;;;25.00;20.93;;;;;;;;;;5010094;28;20451;-54
2023/12/08 20:09:58;;;;;;;23.70;20.80;;;;;;;;;;5010305;28;20791;-54
2023/12/08 20:12:26;;;;;;;23.57;21.13;;;;;;;;;;5029760;28;20540;-55
2023/12/08 20:14:55;;;;;;;24.23;21.73;;;;;;;;;;5029692;28;20895;-55
2023/12/08 20:17:23;;;;;;;23.33;20.73;;;;;;;;;;5024126;28;20446;-55
2023/12/08 20:19:50;;;;;;;23.00;20.60;;;;;;;;;;5016733;28;20529;-55
2023/12/08 20:22:17;;;;;;;21.20;18.77;;;;;;;;;;5023795;28;20952;-54
2023/12/08 20:24:45;;;;;;;19.40;17.37;;;;;;;;;;5022933;28;20590;-55
2023/12/08 20:27:12;;;;;;;19.27;17.10;;;;;;;;;;5027922;28;20504;-54
2023/12/08 20:29:39;;;;;;;19.40;17.23;;;;;;;;;;5028815;28;20555;-55
2023/12/08 20:32:08;;;;;;;21.30;17.37;;;;;;;;;;5018132;28;20466;-55
2023/12/08 20:34:37;;;;;;;19.70;17.53;;;;;;;;;;5018085;28;20478;-55
2023/12/08 20:37:04;;;;;;;19.33;17.13;;;;;;;;;;5009157;28;20539;-54
2023/12/08 20:39:31;;;;;;;24.53;17.97;;;;;;;;;;5009187;28;20828;-54
2023/12/08 20:41:59;;;;;;;19.20;16.83;;;;;;;;;;5009643;28;20471;-53
2023/12/08 20:44:26;;;;;;;19.27;17.30;;;;;;;;;;5013753;28;20881;-53
2023/12/08 20:46:55;;;;;;;19.27;17.40;;;;;;;;;;5029470;28;20443;-54
2023/12/08 20:49:23;;;;;;;19.73;17.93;;;;;;;;;;5027829;28;20461;-53
2023/12/08 20:51:51;;;;;;;17.97;16.07;;;;;;;;;;5028996;28;20474;-54
2023/12/08 20:54:20;;;;;;;16.97;14.40;;;;;;;;;;5028334;28;21039;-53
2023/12/08 20:56:47;;;;;;;17.03;15.43;;;;;;;;;;5022753;28;20881;-53
2023/12/08 20:59:14;;;;;;;16.70;14.90;;;;;;;;;;5027836;28;20458;-53
2023/12/08 21:01:42;;;;;;;17.30;14.90;;;;;;;;;;5028558;28;20903;-53
2023/12/08 21:04:09;;;;;;;18.30;15.67;;;;;;;;;;5028000;28;20442;-53
2023/12/08 21:06:38;;;;;;;19.63;17.57;;;;;;;;;;5014739;28;20451;-53
2023/12/08 21:09:06;;;;;;;21.37;19.10;;;;;;;;;;5001313;28;20447;-54
2023/12/08 21:11:33;;;;;;;30.63;26.67;;;;;;;;;;4999680;28;20478;-53
2023/12/08 21:14:00;;;;;;;28.80;25.40;;;;;;;;;;5002151;28;20867;-53
2023/12/08 21:16:27;;;;;;;27.00;20.67;;;;;;;;;;5000607;28;20444;-54
2023/12/08 21:18:55;;;;;;;23.10;20.73;;;;;;;;;;5002811;28;20912;-53
2023/12/08 21:21:22;;;;;;;16.87;15.13;;;;;;;;;;5008561;28;21075;-53
2023/12/08 21:23:51;;;;;;;16.47;14.83;;;;;;;;;;5011008;28;20443;-54
2023/12/08 21:26:18;;;;;;;18.50;16.80;;;;;;;;;;5013481;28;20434;-54
2023/12/08 21:28:45;;;;;;;23.40;20.47;;;;;;;;;;5011179;28;20981;-53
2023/12/08 21:31:13;;;;;;;28.77;23.33;;;;;;;;;;5012477;28;20456;-53
2023/12/08 21:33:40;;;;;;;25.97;22.17;;;;;;;;;;5011802;28;20966;-53
2023/12/08 21:36:08;;;;;;;29.20;26.30;;;;;;;;;;5010904;28;20490;-54
2023/12/08 21:38:37;;;;;;;29.43;26.33;;;;;;;;;;5005998;28;20458;-54
2023/12/08 21:41:06;;;;;;;30.37;27.17;;;;;;;;;;5008614;28;20463;-53
2023/12/08 21:43:33;;;;;;;33.30;27.63;;;;;;;;;;5008784;28;20440;-53
2023/12/08 21:46:01;;;;;;;31.10;27.73;;;;;;;;;;5012849;28;20449;-53
2023/12/08 21:48:28;;;;;;;31.10;27.83;;;;;;;;;;5007836;28;21071;-54
2023/12/08 21:50:55;;;;;;;32.60;29.00;;;;;;;;;;5011944;28;20571;-53
2023/12/08 21:53:23;;;;;;;31.03;27.83;;;;;;;;;;5016481;28;20918;-53
2023/12/08 21:55:50;;;;;;;31.10;27.80;;;;;;;;;;5015420;28;20524;-54
2023/12/08 21:58:19;;;;;;;35.70;29.17;;;;;;;;;;5017998;28;20936;-53
2023/12/08 22:00:46;;;;;;;28.43;25.70;;;;;;;;;;5016395;28;20534;-54
2023/12/08 22:03:14;;;;;;;25.37;22.87;;;;;;;;;;5018166;28;20439;-53
2023/12/08 22:05:41;;;;;;;31.00;26.00;;;;;;;;;;5016344;28;20489;-54
2023/12/08 22:08:08;;;;;;;26.70;22.27;;;;;;;;;;5017815;28;20443;-53
2023/12/08 22:10:36;;;;;;;26.57;23.30;;;;;;;;;;5016071;28;20510;-53
2023/12/08 22:13:03;;;;;;;24.37;21.97;;;;;;;;;;5017723;28;20456;-53
2023/12/08 22:15:32;;;;;;;22.80;20.50;;;;;;;;;;5016885;28;20479;-53
2023/12/08 22:17:58;;;;;;;24.27;22.00;;;;;;;;;;5016535;28;20448;-53
2023/12/08 22:20:25;;;;;;;26.77;23.03;;;;;;;;;;5017333;28;20440;-54
2023/12/08 22:22:53;;;;;;;27.43;24.67;;;;;;;;;;5015798;28;20517;-53
2023/12/08 22:25:20;;;;;;;25.50;22.77;;;;;;;;;;5018170;28;20440;-53
2023/12/08 22:27:47;;;;;;;26.83;23.97;;;;;;;;;;5015315;28;20806;-53
2023/12/08 22:30:15;;;;;;;27.77;24.63;;;;;;;;;;5014571;28;20509;-53
2023/12/08 22:32:43;;;;;;;26.87;23.73;;;;;;;;;;5015458;28;20474;-54
2023/12/08 22:35:11;;;;;;;24.33;21.73;;;;;;;;;;5025118;28;20513;-53
2023/12/08 22:37:38;;;;;;;25.30;22.10;;;;;;;;;;5013825;28;20447;-53
2023/12/08 22:40:06;;;;;;;26.07;23.57;;;;;;;;;;5017435;28;20514;-54
2023/12/08 22:42:33;;;;;;;25.30;22.63;;;;;;;;;;5016675;28;20464;-54
2023/12/08 22:45:01;;;;;;;26.10;23.30;;;;;;;;;;5017182;28;20441;-54
2023/12/08 22:47:28;;;;;;;25.63;22.80;;;;;;;;;;5017365;28;20450;-54
2023/12/08 22:49:56;;;;;;;26.73;23.87;;;;;;;;;;5013794;28;20456;-53
2023/12/08 22:52:24;;;;;;;28.73;25.13;;;;;;;;;;5012143;28;20478;-53
2023/12/08 22:54:51;;;;;;;28.77;25.50;;;;;;;;;;5016361;28;21031;-54
2023/12/08 22:57:18;;;;;;;31.17;26.80;;;;;;;;;;5013885;28;20447;-54
2023/12/08 22:59:46;;;;;;;29.80;26.70;;;;;;;;;;5013977;28;21186;-53
2023/12/08 23:02:13;;;;;;;31.10;26.10;;;;;;;;;;5018651;28;20466;-53
2023/12/08 23:04:40;;;;;;;29.60;26.30;;;;;;;;;;5016085;28;20443;-53
2023/12/08 23:07:09;;;;;;;32.47;28.23;;;;;;;;;;5024100;28;20449;-54
2023/12/08 23:09:36;;;;;;;33.57;27.80;;;;;;;;;;5030574;28;20442;-54
2023/12/08 23:12:04;;;;;;;31.43;28.03;;;;;;;;;;5031450;28;20862;-53
2023/12/08 23:14:31;;;;;;;31.50;28.10;;;;;;;;;;5031816;28;20446;-53
2023/12/08 23:16:59;;;;;;;34.50;30.43;;;;;;;;;;5024041;28;20567;-54
2023/12/08 23:19:26;;;;;;;31.60;28.43;;;;;;;;;;5022506;28;20521;-54
2023/12/08 23:21:53;;;;;;;31.07;24.30;;;;;;;;;;5023284;28;20986;-53
2023/12/08 23:24:25;;;;;;;24.37;21.80;;;;;;;;;;5011839;28;20691;-54
2023/12/08 23:26:52;;;;;;;26.57;21.40;;;;;;;;;;5031587;28;20447;-53
2023/12/08 23:29:20;;;;;;;26.10;23.50;;;;;;;;;;5018263;28;20835;-54
2023/12/08 23:31:47;;;;;;;26.03;23.43;;;;;;;;;;5020108;28;20467;-53
2023/12/08 23:34:15;;;;;;;22.07;19.97;;;;;;;;;;5026520;28;20466;-54
2023/12/08 23:39:18;;;;;;;21.93;19.53;;;;;;;;;;5082921;27;20644;-54
2023/12/08 23:41:45;;;;;;;23.40;21.00;;;;;;;;;;5076288;28;20551;-55
2023/12/08 23:44:12;;;;;;;23.70;20.50;;;;;;;;;;5083676;28;20467;-54
2023/12/08 23:46:40;;;;;;;26.77;22.67;;;;;;;;;;5087302;28;20957;-55
2023/12/08 23:49:08;;;;;;;23.47;20.50;;;;;;;;;;5082946;28;20488;-55
2023/12/08 23:51:35;;;;;;;21.47;19.47;;;;;;;;;;5082973;28;20508;-54
2023/12/08 23:54:02;;;;;;;24.20;21.63;;;;;;;;;;5081849;28;20502;-54
2023/12/08 23:56:31;;;;;;;22.00;19.87;;;;;;;;;;5087540;28;20449;-54
2023/12/08 23:58:58;;;;;;;19.93;17.93;;;;;;;;;;5078316;28;20492;-54
